createdAt,value
2022-11-02T00:02:10.936Z,108.15
2022-11-02T00:04:37.586Z,103.68
2022-11-02T00:07:04.235Z,110.03
2022-11-02T00:09:30.880Z,101.15
2022-11-02T00:11:57.501Z,100.20
2022-11-02T00:14:24.201Z,101.85
2022-11-02T00:16:51.183Z,99.13
2022-11-02T00:19:18.044Z,100.57
2022-11-02T00:21:44.852Z,103.35
2022-11-02T00:24:12.363Z,104.10
2022-11-02T00:26:39.105Z,103.00
2022-11-02T00:29:06.508Z,104.50
2022-11-02T00:31:33.286Z,100.75
2022-11-02T00:33:59.909Z,104.28
2022-11-02T00:36:27.789Z,99.25
2022-11-02T00:38:54.489Z,106.43
2022-11-02T00:41:22.148Z,101.68
2022-11-02T00:43:48.802Z,98.07
2022-11-02T00:46:15.475Z,105.50
2022-11-02T00:48:42.107Z,99.20
2022-11-02T00:51:08.721Z,109.38
2022-11-02T00:53:35.346Z,101.45
2022-11-02T00:56:01.992Z,101.50
2022-11-02T00:58:28.600Z,100.22
2022-11-02T01:00:56.511Z,101.80
2022-11-02T01:03:23.136Z,102.15
2022-11-02T01:05:49.878Z,100.28
2022-11-02T01:08:16.492Z,105.10
2022-11-02T01:10:45.652Z,101.53
2022-11-02T01:13:15.896Z,100.85
2022-11-02T01:15:43.122Z,104.60
2022-11-02T01:18:09.779Z,100.90
2022-11-02T01:20:36.405Z,101.78
2022-11-02T01:23:03.088Z,103.68
2022-11-02T01:25:29.682Z,98.25
2022-11-02T01:27:56.337Z,99.47
2022-11-02T01:30:22.943Z,102.65
2022-11-02T01:32:49.560Z,97.07
2022-11-02T01:35:16.758Z,100.55
2022-11-02T01:37:43.517Z,102.25
2022-11-02T01:40:10.562Z,101.13
2022-11-02T01:42:37.192Z,98.45
2022-11-02T01:45:04.165Z,99.03
2022-11-02T01:47:36.117Z,106.30
2022-11-02T01:50:25.823Z,100.10
2022-11-02T01:52:52.973Z,100.75
2022-11-02T01:55:27.391Z,96.65
2022-11-02T01:57:59.014Z,107.00
2022-11-02T02:00:25.720Z,98.93
2022-11-02T02:03:16.724Z,100.38
2022-11-02T02:06:08.726Z,98.28
2022-11-02T02:08:39.179Z,101.65
2022-11-02T02:11:29.423Z,98.07
2022-11-02T02:13:59.452Z,97.68
2022-11-02T02:16:33.607Z,99.18
2022-11-02T02:19:04.876Z,99.88
2022-11-02T02:21:46.243Z,97.22
2022-11-02T02:24:22.146Z,103.60
2022-11-02T02:27:05.693Z,98.38
2022-11-02T02:29:57.190Z,112.60
2022-11-02T02:32:49.213Z,107.50
2022-11-02T02:35:33.630Z,103.05
2022-11-02T02:38:14.144Z,100.20
2022-11-02T02:41:14.317Z,102.05
2022-11-02T02:43:46.110Z,103.93
2022-11-02T02:46:20.541Z,98.97
2022-11-02T02:48:49.020Z,99.43
2022-11-02T02:51:22.014Z,103.93
2022-11-02T02:54:04.400Z,101.32
2022-11-02T02:56:39.325Z,101.03
2022-11-02T02:59:18.606Z,105.50
2022-11-02T03:01:46.136Z,97.97
2022-11-02T03:04:13.683Z,103.32
2022-11-02T03:06:43.246Z,98.72
2022-11-02T03:09:39.992Z,103.88
2022-11-02T03:12:25.185Z,101.47
2022-11-02T03:15:11.013Z,103.63
2022-11-02T03:18:03.580Z,99.93
2022-11-02T03:20:43.510Z,103.38
2022-11-02T03:23:37.470Z,103.47
2022-11-02T03:26:26.989Z,106.30
2022-11-02T03:29:21.912Z,99.90
2022-11-02T03:31:55.463Z,100.85
2022-11-02T03:34:35.129Z,99.68
2022-11-02T03:37:24.249Z,104.40
2022-11-02T03:39:55.281Z,101.03
2022-11-02T03:42:27.065Z,99.35
2022-11-02T03:45:16.591Z,98.68
2022-11-02T03:47:47.071Z,102.50
2022-11-02T03:50:17.445Z,96.90
2022-11-02T03:52:47.073Z,102.70
2022-11-02T03:55:22.466Z,101.63
2022-11-02T03:57:51.060Z,101.05
2022-11-02T04:00:24.004Z,100.80
2022-11-02T04:02:54.445Z,101.07
2022-11-02T04:05:31.060Z,104.85
2022-11-02T04:08:16.929Z,108.57
2022-11-02T04:11:02.153Z,104.20
2022-11-02T04:13:47.976Z,97.55
2022-11-02T04:16:15.417Z,102.10
2022-11-02T04:19:00.672Z,98.28
2022-11-02T04:21:28.050Z,98.93
2022-11-02T04:24:13.228Z,100.95
2022-11-02T04:26:39.882Z,113.55
2022-11-02T04:29:06.508Z,105.05
2022-11-02T04:31:33.128Z,99.82
2022-11-02T04:34:00.050Z,102.20
2022-11-02T04:36:29.527Z,106.07
2022-11-02T04:38:56.265Z,103.80
2022-11-02T04:41:42.103Z,102.22
2022-11-02T04:44:10.535Z,104.30
2022-11-02T04:46:38.694Z,96.80
2022-11-02T04:49:06.160Z,102.10
2022-11-02T04:51:33.244Z,104.85
2022-11-02T04:54:00.209Z,108.88
2022-11-02T04:56:28.495Z,99.82
2022-11-02T04:58:57.468Z,102.68
2022-11-02T05:01:26.539Z,105.68
2022-11-02T05:03:54.260Z,106.07
2022-11-02T05:06:22.806Z,99.53
2022-11-02T05:08:49.634Z,99.72
2022-11-02T05:11:16.609Z,100.20
2022-11-02T05:13:44.614Z,103.30
2022-11-02T05:16:17.554Z,100.28
2022-11-02T05:18:44.356Z,97.93
2022-11-02T05:21:12.260Z,104.00
2022-11-02T05:23:39.408Z,104.60
2022-11-02T05:26:11.765Z,101.05
2022-11-02T05:28:38.685Z,98.80
2022-11-02T05:31:05.457Z,99.70
2022-11-02T05:33:32.903Z,99.95
2022-11-02T05:36:00.263Z,97.00
2022-11-02T05:38:27.797Z,112.35
2022-11-02T05:40:56.417Z,99.85
2022-11-02T05:43:23.976Z,107.28
2022-11-02T05:45:58.745Z,97.32
2022-11-02T05:48:26.806Z,99.13
2022-11-02T05:50:57.971Z,102.55
2022-11-02T05:53:25.605Z,103.35
2022-11-02T05:55:52.796Z,97.78
2022-11-02T05:58:19.430Z,99.93
2022-11-02T06:00:46.038Z,109.22
2022-11-02T06:03:12.631Z,107.20
2022-11-02T06:05:39.329Z,97.82
2022-11-02T06:08:05.978Z,106.68
2022-11-02T06:10:32.616Z,100.25
2022-11-02T06:13:01.289Z,102.78
2022-11-02T06:15:29.621Z,99.03
2022-11-02T06:17:56.300Z,106.30
2022-11-02T06:20:23.513Z,101.63
2022-11-02T06:22:50.641Z,100.68
2022-11-02T06:25:17.636Z,97.22
2022-11-02T06:27:56.111Z,96.82
2022-11-02T06:30:26.214Z,100.63
2022-11-02T06:32:54.520Z,96.50
2022-11-02T06:35:22.558Z,100.82
2022-11-02T06:37:49.315Z,100.55
2022-11-02T06:40:17.109Z,103.07
2022-11-02T06:42:56.534Z,107.07
2022-11-02T06:45:31.830Z,105.65
2022-11-02T06:47:58.593Z,101.05
2022-11-02T06:50:25.228Z,106.93
2022-11-02T06:52:52.273Z,104.40
2022-11-02T06:55:19.137Z,96.35
2022-11-02T06:57:45.915Z,97.80
2022-11-02T07:00:20.770Z,103.47
2022-11-02T07:03:04.385Z,99.10
2022-11-02T07:05:31.989Z,103.70
2022-11-02T07:07:59.073Z,101.07
2022-11-02T07:10:26.763Z,102.70
2022-11-02T07:12:55.222Z,104.22
2022-11-02T07:15:23.916Z,95.47
2022-11-02T07:17:50.940Z,95.20
2022-11-02T07:20:18.155Z,102.18
2022-11-02T07:22:59.013Z,96.30
2022-11-02T07:25:27.395Z,100.85
2022-11-02T07:27:54.446Z,102.05
2022-11-02T07:30:21.089Z,98.18
2022-11-02T07:32:47.744Z,96.22
2022-11-02T07:35:15.903Z,105.25
2022-11-02T07:37:42.630Z,104.57
2022-11-02T07:40:11.574Z,97.95
2022-11-02T07:42:46.503Z,101.35
2022-11-02T07:45:13.429Z,106.60
2022-11-02T07:47:45.027Z,104.53
2022-11-02T07:50:13.056Z,102.07
2022-11-02T07:52:45.924Z,96.05
2022-11-02T07:55:14.032Z,100.65
2022-11-02T07:57:40.784Z,99.78
2022-11-02T08:00:07.944Z,97.93
2022-11-02T08:02:34.609Z,96.47
2022-11-02T08:05:01.303Z,95.65
2022-11-02T08:07:27.921Z,94.18
2022-11-02T08:09:54.552Z,104.28
2022-11-02T08:12:21.155Z,113.00
2022-11-02T08:14:47.798Z,102.63
2022-11-02T08:17:14.453Z,93.50
2022-11-02T08:19:41.075Z,97.22
2022-11-02T08:22:08.317Z,93.25
2022-11-02T08:24:35.049Z,93.00
2022-11-02T08:27:01.845Z,89.15
2022-11-02T08:29:28.502Z,92.68
2022-11-02T08:31:55.233Z,89.78
2022-11-02T08:34:21.861Z,91.05
2022-11-02T08:36:48.483Z,99.18
2022-11-02T08:39:18.823Z,97.90
2022-11-02T08:41:45.844Z,97.97
2022-11-02T08:44:12.462Z,98.28
2022-11-02T08:46:39.068Z,91.32
2022-11-02T08:49:05.687Z,96.82
2022-11-02T08:51:32.318Z,89.38
2022-11-02T08:53:59.274Z,86.60
2022-11-02T08:56:25.887Z,88.07
2022-11-02T08:58:52.733Z,87.72
2022-11-02T09:01:19.394Z,88.22
2022-11-02T09:03:46.052Z,88.85
2022-11-02T09:06:12.705Z,87.25
2022-11-02T09:08:39.324Z,86.47
2022-11-02T09:11:06.225Z,87.97
2022-11-02T09:13:32.954Z,85.87
2022-11-02T09:16:01.625Z,89.93
2022-11-02T09:18:28.591Z,87.90
2022-11-02T09:20:55.286Z,86.20
2022-11-02T09:23:22.375Z,83.30
2022-11-02T09:25:49.928Z,86.47
2022-11-02T09:28:16.815Z,88.70
2022-11-02T09:30:43.686Z,85.90
2022-11-02T09:33:10.684Z,91.23
2022-11-02T09:35:39.976Z,89.87
2022-11-02T09:38:07.118Z,87.40
2022-11-02T09:41:04.587Z,85.40
2022-11-02T09:43:36.947Z,87.50
2022-11-02T09:46:31.729Z,85.00
2022-11-02T09:49:05.308Z,85.67
2022-11-02T09:51:33.855Z,88.43
2022-11-02T09:54:06.648Z,86.93
2022-11-02T09:56:35.568Z,85.20
2022-11-02T09:59:25.036Z,85.80
2022-11-02T10:02:01.030Z,88.07
2022-11-02T10:04:33.721Z,84.87
2022-11-02T10:07:15.847Z,90.93
2022-11-02T10:09:57.730Z,84.43
2022-11-02T10:12:39.641Z,83.27
2022-11-02T10:15:15.501Z,89.90
2022-11-02T10:17:43.857Z,90.20
2022-11-02T10:20:36.280Z,89.47
2022-11-02T10:23:08.753Z,81.77
2022-11-02T10:25:37.439Z,84.00
2022-11-02T10:28:12.241Z,86.40
2022-11-02T10:30:39.877Z,84.47
2022-11-02T10:33:15.097Z,86.33
2022-11-02T10:35:57.667Z,82.77
2022-11-02T10:39:02.425Z,83.80
2022-11-02T10:42:13.003Z,86.67
2022-11-02T10:45:03.755Z,89.15
2022-11-02T10:47:58.553Z,93.53
2022-11-02T10:50:46.124Z,89.90
2022-11-02T10:53:39.688Z,85.63
2022-11-02T10:56:18.886Z,85.23
2022-11-02T10:59:15.821Z,84.50
2022-11-02T11:01:58.847Z,85.07
2022-11-02T11:04:28.111Z,84.37
2022-11-02T11:06:56.616Z,82.77
2022-11-02T11:09:25.029Z,87.93
2022-11-02T11:12:03.118Z,82.37
2022-11-02T11:20:35.209Z,84.87
2022-11-02T11:23:27.965Z,87.00
2022-11-02T11:26:28.187Z,84.40
2022-11-02T11:28:56.698Z,86.57
2022-11-02T11:31:24.216Z,87.17
2022-11-02T11:33:55.983Z,85.43
2022-11-02T11:36:34.272Z,96.18
2022-11-02T11:39:22.704Z,90.63
2022-11-02T11:41:49.467Z,84.97
2022-11-02T11:44:16.458Z,87.13
2022-11-02T11:46:45.069Z,90.40
2022-11-02T11:49:41.705Z,87.10
2022-11-02T11:52:26.995Z,96.97
2022-11-02T11:55:00.002Z,88.40
2022-11-02T11:57:32.880Z,88.60
2022-11-02T12:00:04.704Z,90.72
2022-11-02T12:02:36.824Z,88.35
2022-11-02T12:05:17.366Z,86.40
2022-11-02T12:08:05.949Z,86.75
2022-11-02T12:10:58.389Z,85.32
2022-11-02T12:13:57.196Z,85.95
2022-11-02T12:16:48.636Z,87.10
2022-11-02T12:19:34.250Z,87.88
2022-11-02T12:22:31.915Z,87.95
2022-11-02T12:25:20.844Z,88.93
2022-11-02T12:27:54.905Z,85.35
2022-11-02T12:30:53.701Z,86.90
2022-11-02T12:33:35.401Z,88.60
2022-11-02T12:36:11.800Z,89.72
2022-11-02T12:38:47.542Z,89.80
2022-11-02T12:41:38.897Z,91.10
2022-11-02T12:44:23.502Z,89.00
2022-11-02T12:46:59.836Z,91.20
2022-11-02T12:50:00.284Z,89.25
2022-11-02T12:52:35.331Z,90.38
2022-11-02T12:55:04.852Z,88.70
2022-11-02T12:57:36.981Z,88.22
2022-11-02T13:00:17.129Z,86.90
2022-11-02T13:03:05.834Z,88.00
2022-11-02T13:05:41.067Z,88.18
2022-11-02T13:08:22.566Z,86.20
2022-11-02T13:10:57.144Z,87.45
2022-11-02T13:13:42.282Z,83.43
2022-11-02T13:16:10.753Z,87.73
2022-11-02T13:18:49.607Z,88.30
2022-11-02T13:21:22.649Z,82.67
2022-11-02T13:23:57.813Z,87.57
2022-11-02T13:26:37.755Z,85.63
2022-11-02T13:29:17.356Z,84.95
2022-11-02T13:32:05.825Z,84.68
2022-11-02T13:34:36.607Z,84.37
2022-11-02T13:37:11.341Z,86.63
2022-11-02T13:39:51.573Z,89.20
2022-11-02T13:42:26.452Z,86.60
2022-11-02T13:45:29.198Z,88.25
2022-11-02T13:48:22.200Z,88.78
2022-11-02T13:50:52.234Z,93.35
2022-11-02T13:53:29.000Z,90.78
2022-11-02T13:56:08.489Z,91.18
2022-11-02T13:58:41.321Z,87.55
2022-11-02T14:01:10.442Z,88.25
2022-11-02T14:03:58.835Z,88.80
2022-11-02T14:06:30.268Z,88.22
2022-11-02T14:09:04.445Z,88.32
2022-11-02T14:11:36.293Z,86.30
2022-11-02T14:14:02.882Z,90.47
2022-11-02T14:16:48.252Z,86.35
2022-11-02T14:19:19.213Z,90.50
2022-11-02T14:21:49.087Z,87.32
2022-11-02T14:24:34.230Z,87.75
2022-11-02T14:27:19.133Z,90.80
2022-11-02T14:29:45.722Z,88.40
2022-11-02T14:32:21.206Z,92.47
2022-11-02T14:35:16.250Z,95.82
2022-11-02T14:37:59.233Z,92.43
2022-11-02T14:40:50.299Z,91.53
2022-11-02T14:43:46.881Z,90.28
2022-11-02T14:46:22.708Z,91.18
2022-11-02T14:48:56.305Z,91.80
2022-11-02T14:51:32.463Z,92.05
2022-11-02T14:54:19.587Z,96.97
2022-11-02T14:57:03.810Z,92.18
2022-11-02T14:59:37.617Z,94.32
2022-11-02T15:02:15.089Z,89.15
2022-11-02T15:05:00.083Z,95.00
2022-11-02T15:07:42.087Z,95.93
2022-11-02T15:10:17.705Z,92.28
2022-11-02T15:12:46.540Z,95.40
2022-11-02T15:15:36.405Z,98.72
2022-11-02T15:18:23.760Z,96.95
2022-11-02T15:21:17.107Z,93.05
2022-11-02T15:24:13.843Z,89.82
2022-11-02T15:26:46.312Z,101.10
2022-11-02T15:29:21.005Z,95.88
2022-11-02T15:31:54.813Z,94.50
2022-11-02T15:34:36.070Z,90.68
2022-11-02T15:37:03.911Z,91.57
2022-11-02T15:39:31.542Z,92.45
2022-11-02T15:42:16.125Z,92.60
2022-11-02T15:45:14.175Z,94.70
2022-11-02T15:47:52.867Z,96.30
2022-11-02T15:50:37.978Z,95.45
2022-11-02T15:53:59.749Z,96.45
2022-11-02T15:56:53.564Z,95.45
2022-11-02T15:59:26.050Z,94.07
2022-11-02T16:02:28.192Z,95.78
2022-11-02T16:04:58.672Z,94.43
2022-11-02T16:07:33.388Z,95.45
2022-11-02T16:10:34.523Z,98.47
2022-11-02T16:13:18.485Z,96.65
2022-11-02T16:15:49.582Z,95.20
2022-11-02T16:18:27.429Z,96.57
2022-11-02T16:21:01.941Z,94.60
2022-11-02T16:23:34.820Z,99.60
2022-11-02T16:26:04.468Z,106.40
2022-11-02T16:28:35.685Z,100.65
2022-11-02T16:31:17.344Z,101.13
2022-11-02T16:33:50.871Z,96.00
2022-11-02T16:36:32.387Z,96.32
2022-11-02T16:39:18.967Z,96.53
2022-11-02T16:41:50.879Z,95.10
2022-11-02T16:44:21.718Z,99.05
2022-11-02T16:46:49.896Z,99.97
2022-11-02T16:49:21.747Z,96.47
2022-11-02T16:52:00.556Z,106.82
2022-11-02T16:54:42.111Z,101.72
2022-11-02T16:57:18.324Z,97.50
2022-11-02T16:59:57.804Z,94.78
2022-11-02T17:02:40.695Z,95.57
2022-11-02T17:05:16.207Z,103.50
2022-11-02T17:07:47.122Z,100.50
2022-11-02T17:10:25.216Z,102.80
2022-11-02T17:12:51.986Z,99.60
2022-11-02T17:15:28.277Z,97.38
2022-11-02T17:18:09.949Z,108.22
2022-11-02T17:20:38.712Z,102.97
2022-11-02T17:23:28.100Z,100.13
2022-11-02T17:26:14.653Z,96.55
2022-11-02T17:28:46.097Z,96.50
2022-11-02T17:31:19.550Z,96.95
2022-11-02T17:33:46.769Z,99.13
2022-11-02T17:36:14.870Z,104.55
2022-11-02T17:38:41.807Z,99.80
2022-11-02T17:41:34.102Z,100.68
2022-11-02T17:44:00.742Z,100.13
2022-11-02T17:46:27.490Z,104.50
2022-11-02T17:48:54.128Z,97.50
2022-11-02T17:51:23.105Z,100.85
2022-11-02T17:53:50.364Z,102.63
2022-11-02T17:56:17.066Z,98.57
2022-11-02T17:58:43.710Z,100.60
2022-11-02T18:01:12.691Z,97.10
2022-11-02T18:03:39.627Z,106.63
2022-11-02T18:06:06.614Z,99.13
2022-11-02T18:08:53.210Z,105.45
2022-11-02T18:11:25.835Z,105.70
2022-11-02T18:13:53.346Z,103.50
2022-11-02T18:16:20.001Z,106.38
2022-11-02T18:18:46.701Z,101.53
2022-11-02T18:21:13.384Z,109.22
2022-11-02T18:23:41.278Z,104.25
2022-11-02T18:26:11.334Z,97.45
2022-11-02T18:28:38.299Z,99.10
2022-11-02T18:31:09.084Z,100.45
2022-11-02T18:33:35.956Z,100.43
2022-11-02T18:36:04.809Z,101.00
2022-11-02T18:38:31.597Z,102.78
2022-11-02T18:41:26.813Z,100.53
2022-11-02T18:43:57.999Z,97.47
2022-11-02T18:46:30.691Z,101.72
2022-11-02T18:48:57.956Z,99.65
2022-11-02T18:51:25.036Z,107.50
2022-11-02T18:54:02.615Z,98.95
2022-11-02T18:56:30.228Z,98.95
2022-11-02T18:58:57.250Z,101.47
2022-11-02T19:01:24.983Z,102.28
2022-11-02T19:03:54.358Z,100.80
2022-11-02T19:06:40.202Z,99.85
2022-11-02T19:09:20.074Z,104.38
2022-11-02T19:11:54.195Z,107.55
2022-11-02T19:14:22.272Z,97.68
2022-11-02T19:16:49.758Z,100.82
2022-11-02T19:19:16.407Z,99.32
2022-11-02T19:21:43.344Z,100.45
2022-11-02T19:24:10.300Z,102.65
2022-11-02T19:26:37.555Z,105.68
2022-11-02T19:29:06.509Z,106.07
2022-11-02T19:31:34.850Z,107.97
2022-11-02T19:34:01.706Z,99.53
2022-11-02T19:36:28.414Z,101.93
2022-11-02T19:38:55.090Z,101.60
2022-11-02T19:41:22.246Z,112.05
2022-11-02T19:43:48.985Z,105.15
2022-11-02T19:46:22.505Z,100.20
2022-11-02T19:48:49.504Z,103.43
2022-11-02T19:51:20.625Z,105.68
2022-11-02T19:53:49.995Z,103.93
2022-11-02T19:56:17.421Z,101.25
2022-11-02T19:58:45.563Z,103.00
2022-11-02T20:01:16.618Z,104.78
2022-11-02T20:03:44.029Z,103.15
2022-11-02T20:06:13.380Z,100.45
2022-11-02T20:08:40.000Z,104.18
2022-11-02T20:11:12.382Z,104.35
2022-11-02T20:13:41.355Z,103.18
2022-11-02T20:16:09.672Z,103.53
2022-11-02T20:18:38.788Z,103.65
2022-11-02T20:21:07.348Z,105.53
2022-11-02T20:23:34.483Z,108.70
2022-11-02T20:26:03.521Z,111.32
2022-11-02T20:28:30.531Z,102.22
2022-11-02T20:30:57.804Z,102.95
2022-11-02T20:33:24.886Z,105.30
2022-11-02T20:35:51.513Z,109.90
2022-11-02T20:38:18.137Z,106.85
2022-11-02T20:40:44.762Z,103.00
2022-11-02T20:43:11.417Z,102.35
2022-11-02T20:45:38.112Z,101.18
2022-11-02T20:48:05.369Z,106.82
2022-11-02T20:50:33.640Z,104.03
2022-11-02T20:53:00.348Z,104.10
2022-11-02T20:55:27.275Z,102.22
2022-11-02T20:57:53.924Z,100.82
2022-11-02T21:00:20.689Z,100.78
2022-11-02T21:02:48.001Z,101.45
2022-11-02T21:05:15.062Z,109.50
2022-11-02T21:07:41.780Z,107.18
2022-11-02T21:10:09.611Z,105.70
2022-11-02T21:12:54.856Z,102.63
2022-11-02T21:15:21.533Z,100.22
2022-11-02T21:17:48.235Z,112.90
2022-11-02T21:20:33.246Z,99.78
2022-11-02T21:23:05.608Z,101.45
2022-11-02T21:25:33.302Z,102.07
2022-11-02T21:28:00.185Z,104.82
2022-11-02T21:30:30.837Z,110.68
2022-11-02T21:32:57.705Z,99.43
2022-11-02T21:35:24.763Z,103.07
2022-11-02T21:37:56.365Z,107.47
2022-11-02T21:40:23.249Z,100.80
2022-11-02T21:42:49.913Z,104.57
2022-11-02T21:45:18.097Z,101.95
2022-11-02T21:47:45.039Z,101.88
2022-11-02T21:50:11.909Z,101.18
2022-11-02T21:52:41.052Z,105.22
2022-11-02T21:55:11.402Z,99.80
2022-11-02T21:57:38.120Z,104.65
2022-11-02T22:00:05.179Z,104.25
2022-11-02T22:02:31.828Z,105.30
2022-11-02T22:04:58.593Z,102.00
2022-11-02T22:07:25.283Z,103.15
2022-11-02T22:09:51.893Z,99.75
2022-11-02T22:12:37.332Z,103.22
2022-11-02T22:15:04.321Z,99.88
2022-11-02T22:20:17.547Z,103.03
2022-11-02T22:22:44.900Z,102.43
2022-11-02T22:25:11.532Z,102.82
2022-11-02T22:27:38.197Z,102.50
2022-11-02T22:30:05.469Z,123.85
2022-11-02T22:32:32.128Z,109.85
2022-11-02T22:34:58.756Z,110.95
2022-11-02T22:37:43.913Z,106.50
2022-11-02T22:40:10.811Z,107.40
2022-11-02T22:42:39.882Z,107.30
2022-11-02T22:45:09.433Z,107.50
2022-11-02T22:47:36.786Z,107.75
2022-11-02T22:50:03.721Z,103.28
2022-11-02T22:52:30.336Z,105.57
2022-11-02T22:54:57.005Z,106.43
2022-11-02T22:57:23.694Z,112.55
2022-11-02T22:59:50.304Z,123.95
2022-11-02T23:02:17.032Z,114.75
2022-11-02T23:04:43.696Z,105.47
2022-11-02T23:07:10.752Z,112.72
2022-11-02T23:09:37.380Z,108.20
2022-11-02T23:12:04.144Z,115.15
2022-11-02T23:14:30.785Z,114.70
2022-11-02T23:16:58.655Z,108.82
2022-11-02T23:19:31.608Z,111.35
2022-11-02T23:22:28.381Z,108.45
2022-11-02T23:25:14.791Z,108.55
2022-11-02T23:28:03.887Z,105.20
2022-11-02T23:30:51.161Z,111.10
2022-11-02T23:33:18.894Z,104.43
2022-11-02T23:36:04.521Z,117.45
2022-11-02T23:38:50.104Z,103.30
2022-11-02T23:41:17.746Z,107.20
2022-11-02T23:43:44.493Z,107.53
2022-11-02T23:46:11.260Z,106.30
2022-11-02T23:48:37.895Z,108.70
2022-11-02T23:51:23.195Z,107.00
2022-11-02T23:54:08.524Z,117.00
2022-11-02T23:56:44.454Z,106.25
2022-11-02T23:59:11.043Z,106.63
